createdAt,value
2024-05-09T00:02:34.373Z,66.00
2024-05-09T00:05:30.587Z,65.40
2024-05-09T00:08:26.780Z,64.80
2024-05-09T00:11:23.215Z,64.50
2024-05-09T00:14:19.358Z,64.10
2024-05-09T00:17:15.677Z,64.00
2024-05-09T00:20:17.882Z,62.90
2024-05-09T00:23:20.362Z,63.10
2024-05-09T00:26:22.242Z,61.80
2024-05-09T00:29:18.451Z,61.00
2024-05-09T00:32:14.656Z,60.60
2024-05-09T00:35:11.059Z,59.70
2024-05-09T00:38:07.625Z,59.30
2024-05-09T00:41:03.951Z,59.40
2024-05-09T00:44:00.128Z,58.70
2024-05-09T00:46:58.138Z,58.10
2024-05-09T00:49:54.314Z,58.50
2024-05-09T00:52:51.891Z,58.10
2024-05-09T00:55:49.460Z,57.90
2024-05-09T00:58:46.552Z,57.60
2024-05-09T01:01:45.951Z,58.00
2024-05-09T01:04:42.685Z,58.70
2024-05-09T01:07:38.797Z,58.20
2024-05-09T01:10:36.110Z,58.20
2024-05-09T01:13:32.683Z,56.90
2024-05-09T01:16:29.015Z,56.50
2024-05-09T01:19:32.786Z,56.20
2024-05-09T01:22:31.088Z,56.00
2024-05-09T01:25:27.173Z,55.50
2024-05-09T01:28:23.222Z,55.60
2024-05-09T01:31:19.329Z,55.70
2024-05-09T01:34:15.523Z,55.30
2024-05-09T01:37:11.737Z,54.80
2024-05-09T01:40:12.062Z,55.10
2024-05-09T01:43:13.940Z,55.40
2024-05-09T01:46:15.759Z,55.00
2024-05-09T01:49:12.033Z,55.10
2024-05-09T01:52:08.617Z,54.90
2024-05-09T01:55:06.506Z,53.00
2024-05-09T01:58:03.101Z,53.00
2024-05-09T02:00:59.248Z,53.20
2024-05-09T02:03:55.625Z,52.90
2024-05-09T02:06:52.086Z,52.90
2024-05-09T02:09:48.248Z,52.50
2024-05-09T02:12:44.305Z,50.50
2024-05-09T02:15:40.423Z,51.40
2024-05-09T02:18:36.493Z,50.90
2024-05-09T02:21:36.408Z,51.50
2024-05-09T02:24:32.441Z,51.20
2024-05-09T02:27:28.625Z,50.90
2024-05-09T02:30:31.150Z,51.30
2024-05-09T02:33:35.243Z,51.50
2024-05-09T02:36:31.310Z,51.30
2024-05-09T02:39:27.371Z,51.40
2024-05-09T02:42:23.378Z,51.30
2024-05-09T02:45:19.416Z,50.40
2024-05-09T02:48:16.082Z,50.20
2024-05-09T02:51:12.316Z,49.80
2024-05-09T02:54:09.626Z,50.00
2024-05-09T02:57:04.881Z,49.80
2024-05-09T03:00:00.916Z,49.90
2024-05-09T03:02:57.796Z,49.70
2024-05-09T03:05:53.894Z,50.40
2024-05-09T03:08:51.039Z,49.90
2024-05-09T03:11:47.871Z,50.20
2024-05-09T03:14:43.977Z,50.00
2024-05-09T03:17:42.624Z,50.50
2024-05-09T03:20:40.194Z,50.10
2024-05-09T03:23:38.101Z,50.00
2024-05-09T03:26:34.238Z,50.30
2024-05-09T03:29:30.494Z,50.50
2024-05-09T03:32:26.930Z,50.00
2024-05-09T03:35:23.249Z,49.90
2024-05-09T03:38:19.406Z,49.70
2024-05-09T03:41:16.433Z,49.80
2024-05-09T03:44:12.646Z,50.50
2024-05-09T03:47:08.780Z,49.90
2024-05-09T03:50:05.826Z,48.50
2024-05-09T03:53:04.300Z,47.90
2024-05-09T03:56:00.568Z,47.60
2024-05-09T03:58:56.672Z,47.70
2024-05-09T04:01:52.847Z,48.00
2024-05-09T04:04:49.092Z,47.70
2024-05-09T04:07:48.663Z,47.70
2024-05-09T04:10:45.426Z,47.50
2024-05-09T04:13:41.640Z,47.40
2024-05-09T04:16:37.697Z,47.30
2024-05-09T04:19:33.959Z,47.50
2024-05-09T04:22:30.063Z,47.20
2024-05-09T04:25:26.097Z,46.60
2024-05-09T04:28:22.795Z,46.30
2024-05-09T04:31:18.826Z,46.50
2024-05-09T04:34:15.036Z,46.30
2024-05-09T04:37:11.195Z,46.20
2024-05-09T04:40:11.234Z,46.50
2024-05-09T04:43:17.246Z,46.50
2024-05-09T04:46:13.455Z,46.10
2024-05-09T04:49:09.677Z,45.80
2024-05-09T04:52:05.760Z,45.70
2024-05-09T04:55:01.875Z,46.00
2024-05-09T04:57:57.911Z,45.20
2024-05-09T05:00:54.113Z,45.00
2024-05-09T05:03:50.343Z,45.50
2024-05-09T05:06:46.462Z,45.00
2024-05-09T05:09:42.464Z,45.20
2024-05-09T05:12:57.110Z,44.60
2024-05-09T05:15:59.616Z,44.80
2024-05-09T05:18:55.728Z,45.20
2024-05-09T05:21:51.777Z,45.20
2024-05-09T05:24:47.897Z,46.10
2024-05-09T05:27:43.914Z,46.20
2024-05-09T05:30:41.171Z,46.10
2024-05-09T05:33:37.303Z,45.70
2024-05-09T05:36:33.490Z,46.10
2024-05-09T05:39:29.396Z,45.90
2024-05-09T05:42:25.326Z,45.00
2024-05-09T05:45:21.362Z,44.80
2024-05-09T05:48:19.267Z,44.80
2024-05-09T05:51:15.475Z,45.20
2024-05-09T05:54:11.496Z,45.50
2024-05-09T05:57:07.701Z,45.40
2024-05-09T06:00:05.530Z,46.00
2024-05-09T06:03:05.282Z,45.80
2024-05-09T06:06:07.121Z,46.00
2024-05-09T06:09:03.122Z,45.70
2024-05-09T06:11:59.055Z,46.50
2024-05-09T06:14:55.383Z,45.70
2024-05-09T06:17:51.505Z,45.60
2024-05-09T06:20:47.706Z,45.80
2024-05-09T06:23:51.248Z,46.40
2024-05-09T06:26:48.313Z,46.40
2024-05-09T06:29:44.256Z,46.50
2024-05-09T06:32:40.273Z,47.10
2024-05-09T06:35:36.785Z,46.80
2024-05-09T06:38:33.204Z,47.00
2024-05-09T06:41:29.378Z,47.40
2024-05-09T06:44:25.699Z,48.10
2024-05-09T06:47:21.784Z,48.40
2024-05-09T06:50:23.762Z,49.00
2024-05-09T06:53:26.838Z,49.60
2024-05-09T06:56:22.867Z,50.00
2024-05-09T06:59:18.978Z,50.10
2024-05-09T07:02:14.966Z,50.40
2024-05-09T07:05:11.152Z,50.90
2024-05-09T07:08:07.737Z,51.00
2024-05-09T07:11:03.977Z,51.10
2024-05-09T07:14:00.012Z,50.80
2024-05-09T07:16:56.402Z,50.50
2024-05-09T07:19:54.084Z,49.90
2024-05-09T07:22:50.482Z,49.40
2024-05-09T07:25:46.943Z,49.10
2024-05-09T07:28:43.176Z,48.70
2024-05-09T07:31:39.065Z,47.90
2024-05-09T07:34:35.437Z,47.30
2024-05-09T07:37:31.429Z,47.40
2024-05-09T07:40:34.883Z,47.90
2024-05-09T07:43:32.599Z,48.10
2024-05-09T07:47:36.486Z,48.30
2024-05-09T07:51:32.325Z,48.90
2024-05-09T07:53:35.951Z,49.50
2024-05-09T07:56:18.331Z,50.30
2024-05-09T07:59:15.145Z,51.30
2024-05-09T08:02:11.482Z,51.70
2024-05-09T08:05:08.046Z,52.90
2024-05-09T08:08:04.059Z,52.70
2024-05-09T08:10:59.952Z,52.90
2024-05-09T08:13:55.891Z,53.40
2024-05-09T08:16:51.843Z,54.10
2024-05-09T08:19:48.140Z,56.20
2024-05-09T08:22:44.170Z,55.70
2024-05-09T08:25:40.702Z,56.20
2024-05-09T08:28:36.673Z,56.50
2024-05-09T08:31:32.661Z,56.90
2024-05-09T08:34:29.073Z,57.00
2024-05-09T08:37:29.416Z,57.00
2024-05-09T08:40:34.406Z,57.00
2024-05-09T08:43:33.546Z,57.10
2024-05-09T08:46:32.051Z,57.20
2024-05-09T08:49:29.164Z,57.20
2024-05-09T08:52:25.124Z,57.20
2024-05-09T08:55:21.068Z,57.20
2024-05-09T08:58:21.205Z,57.10
2024-05-09T09:01:18.912Z,57.30
2024-05-09T09:04:16.747Z,57.10
2024-05-09T09:07:13.884Z,57.10
2024-05-09T09:10:13.000Z,57.00
2024-05-09T09:13:12.930Z,56.80
2024-05-09T09:16:09.469Z,56.70
2024-05-09T09:19:06.856Z,56.70
2024-05-09T09:22:03.238Z,56.70
2024-05-09T09:24:59.179Z,56.60
2024-05-09T09:27:55.304Z,56.20
2024-05-09T09:30:51.348Z,56.30
2024-05-09T09:33:47.609Z,56.30
2024-05-09T09:36:45.441Z,56.40
2024-05-09T09:39:43.936Z,56.40
2024-05-09T09:42:42.271Z,56.60
2024-05-09T09:45:40.409Z,56.70
2024-05-09T09:48:38.633Z,57.10
2024-05-09T09:51:35.847Z,57.30
2024-05-09T09:54:32.492Z,57.30
2024-05-09T09:57:30.614Z,57.50
2024-05-09T10:00:33.094Z,57.50
2024-05-09T10:03:30.791Z,57.80
2024-05-09T10:06:27.667Z,57.90
2024-05-09T10:09:24.660Z,58.10
2024-05-09T10:12:24.597Z,58.30
2024-05-09T10:15:23.258Z,58.60
2024-05-09T10:18:19.634Z,58.70
2024-05-09T10:21:33.664Z,58.80
2024-05-09T10:24:30.129Z,58.90
2024-05-09T10:27:32.460Z,59.00
2024-05-09T10:30:35.671Z,59.30
2024-05-09T10:34:04.446Z,59.50
2024-05-09T10:37:05.026Z,59.50
2024-05-09T10:40:01.910Z,59.60
2024-05-09T10:43:00.561Z,59.70
2024-05-09T10:45:58.072Z,59.80
2024-05-09T10:48:54.442Z,59.90
2024-05-09T10:51:50.915Z,59.90
2024-05-09T10:54:46.944Z,60.10
2024-05-09T10:57:43.762Z,60.60
2024-05-09T11:00:39.766Z,60.50
2024-05-09T11:03:36.552Z,60.70
2024-05-09T11:06:32.822Z,60.70
2024-05-09T11:09:29.150Z,60.80
2024-05-09T11:12:25.133Z,60.90
2024-05-09T11:15:21.361Z,61.10
2024-05-09T11:18:29.727Z,61.10
2024-05-09T11:21:28.701Z,61.10
2024-05-09T11:24:25.380Z,61.10
2024-05-09T11:27:24.544Z,61.10
2024-05-09T11:30:29.777Z,61.70
2024-05-09T11:33:27.955Z,61.60
2024-05-09T11:36:24.040Z,61.70
2024-05-09T11:39:19.971Z,61.70
2024-05-09T11:42:16.131Z,61.80
2024-05-09T11:45:12.116Z,62.10
2024-05-09T11:48:08.405Z,62.10
2024-05-09T11:51:04.466Z,62.40
2024-05-09T11:54:00.436Z,62.30
2024-05-09T11:56:56.825Z,62.60
2024-05-09T11:59:53.809Z,62.60
2024-05-09T12:02:49.889Z,63.00
2024-05-09T12:05:45.990Z,63.20
2024-05-09T12:08:42.459Z,63.20
2024-05-09T12:11:38.352Z,63.00
2024-05-09T12:14:34.306Z,63.10
2024-05-09T12:17:30.674Z,63.20
2024-05-09T12:20:35.129Z,63.40
2024-05-09T12:23:34.156Z,63.40
2024-05-09T12:26:30.401Z,63.60
2024-05-09T12:29:26.830Z,63.70
2024-05-09T12:32:22.878Z,63.90
2024-05-09T12:35:18.938Z,63.90
2024-05-09T12:38:15.380Z,63.80
2024-05-09T12:41:12.342Z,63.90
2024-05-09T12:44:08.619Z,63.90
2024-05-09T12:47:06.035Z,63.90
2024-05-09T12:50:03.778Z,64.00
2024-05-09T12:53:00.010Z,64.20
2024-05-09T12:56:00.124Z,64.30
2024-05-09T12:58:58.423Z,64.20
2024-05-09T13:01:55.896Z,64.30
2024-05-09T13:04:52.644Z,65.00
2024-05-09T13:07:48.889Z,64.90
2024-05-09T13:10:45.109Z,65.40
2024-05-09T13:13:41.052Z,65.50
2024-05-09T13:16:37.123Z,65.80
2024-05-09T13:19:33.161Z,65.70
2024-05-09T13:22:29.070Z,65.50
2024-05-09T13:25:25.817Z,65.50
2024-05-09T13:28:21.915Z,65.10
2024-05-09T13:31:18.420Z,65.10
2024-05-09T13:34:14.562Z,65.30
2024-05-09T13:37:10.918Z,65.30
2024-05-09T13:40:07.468Z,65.40
2024-05-09T13:43:04.895Z,65.50
2024-05-09T13:46:01.533Z,65.70
2024-05-09T13:48:59.368Z,65.80
2024-05-09T13:51:55.607Z,65.90
2024-05-09T13:54:51.686Z,66.00
2024-05-09T13:57:47.813Z,66.20
2024-05-09T14:00:48.217Z,66.10
2024-05-09T14:03:45.377Z,66.20
2024-05-09T14:06:41.785Z,66.10
2024-05-09T14:09:37.779Z,66.30
2024-05-09T14:12:33.926Z,66.40
2024-05-09T14:15:30.201Z,66.40
2024-05-09T14:18:26.517Z,66.40
2024-05-09T14:21:24.506Z,66.70
2024-05-09T14:24:20.708Z,67.00
2024-05-09T14:27:16.862Z,67.00
2024-05-09T14:30:22.076Z,66.90
2024-05-09T14:33:28.258Z,67.10
2024-05-09T14:36:24.666Z,67.30
2024-05-09T14:39:20.992Z,67.40
2024-05-09T14:42:17.525Z,67.20
2024-05-09T14:45:14.022Z,67.20
2024-05-09T14:48:11.412Z,67.30
2024-05-09T14:51:08.313Z,67.50
2024-05-09T14:54:04.760Z,67.50
2024-05-09T14:57:01.122Z,67.90
2024-05-09T14:59:57.381Z,68.10
2024-05-09T15:02:53.597Z,68.40
2024-05-09T15:05:51.366Z,68.40
2024-05-09T15:08:48.193Z,68.30
2024-05-09T15:11:45.946Z,68.40
2024-05-09T15:14:42.206Z,68.40
2024-05-09T15:17:38.620Z,68.50
2024-05-09T15:20:36.790Z,68.60
2024-05-09T15:23:33.922Z,69.00
2024-05-09T15:26:30.526Z,69.00
2024-05-09T15:29:28.107Z,69.10
2024-05-09T15:32:24.607Z,69.20
2024-05-09T15:35:21.262Z,69.40
2024-05-09T15:38:19.790Z,69.20
2024-05-09T15:41:17.067Z,69.30
2024-05-09T15:44:12.427Z,69.20
2024-05-09T15:47:08.877Z,69.20
2024-05-09T15:50:09.665Z,69.80
2024-05-09T15:53:09.231Z,69.60
2024-05-09T15:56:06.409Z,69.60
2024-05-09T15:59:02.904Z,69.70
2024-05-09T16:01:59.174Z,69.70
2024-05-09T16:04:55.633Z,69.90
2024-05-09T16:07:52.128Z,70.00
2024-05-09T16:10:49.472Z,70.60
2024-05-09T16:13:46.127Z,70.40
2024-05-09T16:16:43.134Z,70.60
2024-05-09T16:19:39.469Z,70.70
2024-05-09T16:22:36.116Z,71.00
2024-05-09T16:25:32.863Z,70.70
2024-05-09T16:28:29.343Z,71.00
2024-05-09T16:31:25.712Z,71.10
2024-05-09T16:34:22.195Z,70.90
2024-05-09T16:37:19.044Z,70.90
2024-05-09T16:40:21.949Z,70.70
2024-05-09T16:43:26.403Z,70.80
2024-05-09T16:46:23.060Z,72.20
2024-05-09T16:49:19.460Z,71.70
2024-05-09T16:52:15.903Z,72.40
2024-05-09T16:55:12.167Z,71.80
2024-05-09T16:58:10.124Z,71.40
2024-05-09T17:01:06.885Z,71.50
2024-05-09T17:04:03.512Z,72.00
2024-05-09T17:07:00.217Z,71.60
2024-05-09T17:09:56.510Z,71.80
2024-05-09T17:12:53.048Z,71.70
2024-05-09T17:15:49.788Z,71.60
2024-05-09T17:18:48.105Z,71.90
2024-05-09T17:21:44.368Z,71.60
2024-05-09T17:24:40.678Z,71.50
2024-05-09T17:27:37.057Z,71.90
2024-05-09T17:30:36.448Z,71.70
2024-05-09T17:33:34.853Z,71.50
2024-05-09T17:36:31.249Z,71.60
2024-05-09T17:39:28.037Z,72.60
2024-05-09T17:42:24.232Z,73.10
2024-05-09T17:45:21.167Z,72.70
2024-05-09T17:51:13.666Z,72.90
2024-05-09T17:54:09.926Z,73.30
2024-05-09T17:57:06.396Z,73.30
2024-05-09T18:00:04.074Z,73.10
2024-05-09T18:03:01.522Z,73.40
2024-05-09T18:05:57.888Z,74.00
2024-05-09T18:08:54.045Z,73.90
2024-05-09T18:11:50.182Z,74.20
2024-05-09T18:14:46.136Z,74.50
2024-05-09T18:17:42.481Z,74.40
2024-05-09T18:20:43.889Z,74.50
2024-05-09T18:23:41.771Z,75.10
2024-05-09T18:26:37.730Z,74.80
2024-05-09T18:29:33.696Z,75.10
2024-05-09T18:32:29.824Z,76.80
2024-05-09T18:35:25.786Z,76.40
2024-05-09T18:38:27.212Z,76.20
2024-05-09T18:41:23.790Z,76.40
2024-05-09T18:44:19.902Z,77.10
2024-05-09T18:47:19.322Z,77.10
2024-05-09T18:50:24.613Z,77.50
2024-05-09T18:53:27.972Z,77.20
2024-05-09T18:56:24.297Z,76.80
2024-05-09T18:59:20.205Z,76.50
2024-05-09T19:02:16.497Z,76.30
2024-05-09T19:05:12.666Z,76.50
2024-05-09T19:08:09.604Z,77.10
2024-05-09T19:11:05.594Z,76.90
2024-05-09T19:14:06.098Z,76.90
2024-05-09T19:17:02.020Z,76.60
2024-05-09T19:19:58.793Z,76.60
2024-05-09T19:22:54.796Z,76.30
2024-05-09T19:25:51.009Z,76.00
2024-05-09T19:28:47.251Z,75.80
2024-05-09T19:31:43.162Z,76.00
2024-05-09T19:34:39.046Z,75.90
2024-05-09T19:37:35.039Z,76.10
2024-05-09T19:40:33.152Z,76.30
2024-05-09T19:43:36.048Z,76.20
2024-05-09T19:46:32.290Z,76.20
2024-05-09T19:49:28.633Z,76.20
2024-05-09T19:52:24.551Z,76.30
2024-05-09T19:55:20.455Z,76.30
2024-05-09T19:58:16.599Z,76.30
2024-05-09T20:01:12.808Z,76.90
2024-05-09T20:04:09.058Z,76.50
2024-05-09T20:07:05.214Z,76.50
2024-05-09T20:10:01.206Z,76.40
2024-05-09T20:12:57.305Z,76.40
2024-05-09T20:15:53.630Z,76.10
2024-05-09T20:18:49.830Z,76.10
2024-05-09T20:21:46.400Z,76.10
2024-05-09T20:24:42.413Z,76.00
2024-05-09T20:27:38.440Z,76.00
2024-05-09T20:30:36.565Z,76.10
2024-05-09T20:33:33.007Z,76.40
2024-05-09T20:36:29.156Z,76.60
2024-05-09T20:39:29.154Z,76.40
2024-05-09T20:42:25.707Z,76.40
2024-05-09T20:45:21.972Z,76.30
2024-05-09T20:48:18.101Z,76.40
2024-05-09T20:51:14.069Z,76.50
2024-05-09T20:54:10.128Z,77.20
2024-05-09T20:57:06.062Z,77.20
2024-05-09T21:00:05.709Z,77.00
2024-05-09T21:03:03.359Z,76.90
2024-05-09T21:05:59.337Z,76.70
2024-05-09T21:08:55.250Z,76.90
2024-05-09T21:11:51.270Z,77.60
2024-05-09T21:14:47.159Z,76.90
2024-05-09T21:17:43.293Z,77.20
2024-05-09T21:20:39.375Z,77.30
2024-05-09T21:23:35.395Z,77.20
2024-05-09T21:26:31.427Z,77.10
2024-05-09T21:29:27.451Z,77.40
2024-05-09T21:32:23.607Z,77.50
2024-05-09T21:35:20.219Z,77.80
2024-05-09T21:38:16.798Z,78.00
2024-05-09T21:41:13.014Z,77.90
2024-05-09T21:44:09.061Z,78.10
2024-05-09T21:47:05.513Z,78.00
2024-05-09T21:50:01.421Z,78.20
2024-05-09T21:52:57.444Z,78.30
2024-05-09T21:55:53.342Z,78.20
2024-05-09T21:58:49.372Z,78.30
2024-05-09T22:01:45.434Z,78.40
2024-05-09T22:04:41.820Z,78.50
2024-05-09T22:07:37.802Z,79.50
2024-05-09T22:10:36.363Z,78.90
2024-05-09T22:13:33.343Z,79.20
2024-05-09T22:16:29.542Z,79.30
2024-05-09T22:19:25.759Z,79.40
2024-05-09T22:22:22.305Z,79.40
2024-05-09T22:25:18.275Z,79.50
2024-05-09T22:28:16.159Z,79.60
2024-05-09T22:31:12.463Z,80.10
2024-05-09T22:34:08.679Z,80.40
2024-05-09T22:37:04.707Z,80.30
2024-05-09T22:40:02.320Z,80.50
2024-05-09T22:42:59.235Z,80.70
2024-05-09T22:45:58.481Z,80.70
2024-05-09T22:48:54.863Z,80.80
2024-05-09T22:51:50.870Z,81.70
2024-05-09T22:54:47.049Z,81.70
2024-05-09T22:57:43.128Z,81.80
2024-05-09T23:00:39.333Z,82.10
2024-05-09T23:03:36.338Z,82.00
2024-05-09T23:06:33.946Z,82.40
2024-05-09T23:09:30.021Z,82.90
2024-05-09T23:12:25.920Z,83.00
2024-05-09T23:15:22.002Z,82.90
2024-05-09T23:18:18.075Z,83.20
2024-05-09T23:21:14.096Z,83.10
2024-05-09T23:24:10.085Z,83.40
2024-05-09T23:27:06.103Z,85.70
2024-05-09T23:30:02.056Z,80.00
2024-05-09T23:32:58.197Z,77.30
2024-05-09T23:35:54.162Z,76.30
2024-05-09T23:38:50.153Z,75.70
2024-05-09T23:41:46.030Z,76.10
2024-05-09T23:44:42.089Z,75.30
2024-05-09T23:47:38.811Z,75.70
2024-05-09T23:50:38.203Z,74.50
2024-05-09T23:53:35.720Z,74.30
2024-05-09T23:56:31.903Z,74.30
2024-05-09T23:59:27.807Z,73.30
